Time;durP1;ratioP1;P1;durP2;ratioP2;P2;SDS_P1;SDS_P2;PMS_P1;PMS_P2;Temp;Humidity;BMP_temperature;BMP_pressure;BME280_temperature;BME280_humidity;BME280_pressure;Samples;Min_cycle;Max_cycle;Signal;HPM_P1;HPM_P2
2022/08/23 00:02:04;;;;;;;8.57;4.60;;;;;;;20.19;60.09;101233.38;5088916;27;20541;-72
2022/08/23 00:04:32;;;;;;;6.07;4.80;;;;;;;20.16;60.11;101234.50;5075075;28;20127;-73
2022/08/23 00:07:01;;;;;;;5.57;4.50;;;;;;;20.50;58.73;101229.88;5076249;28;20048;-72
2022/08/23 00:09:28;;;;;;;6.70;5.05;;;;;;;20.56;58.69;101239.97;5085856;27;20051;-72
2022/08/23 00:12:04;;;;;;;7.30;4.75;;;;;;;20.36;59.70;101243.53;5081364;27;20044;-73
2022/08/23 00:14:33;;;;;;;5.47;4.38;;;;;;;20.04;60.23;101238.19;5079645;28;20044;-73
2022/08/23 00:17:00;;;;;;;5.88;4.45;;;;;;;19.66;61.32;101229.88;5087768;27;20040;-72
2022/08/23 00:19:27;;;;;;;7.97;4.65;;;;;;;19.64;61.64;101226.47;5085712;27;20755;-72
2022/08/23 00:21:55;;;;;;;7.65;5.00;;;;;;;19.29;62.90;101222.16;5088452;27;20048;-72
2022/08/23 00:24:24;;;;;;;4.95;4.45;;;;;;;19.36;62.56;101231.34;5086317;27;20044;-73
2022/08/23 00:26:57;;;;;;;6.93;4.93;;;;;;;19.52;62.21;101222.16;5070406;27;20044;-72
2022/08/23 00:29:28;;;;;;;6.53;4.40;;;;;;;19.43;61.86;101229.94;5073061;27;20048;-72
2022/08/23 00:31:55;;;;;;;8.07;5.70;;;;;;;19.40;62.31;101229.28;5086107;27;20121;-72
2022/08/23 00:34:21;;;;;;;5.85;4.53;;;;;;;19.31;62.62;101232.69;5068354;28;20121;-72
2022/08/23 00:36:49;;;;;;;8.73;5.28;;;;;;;19.37;62.77;101233.03;5070501;28;20123;-72
2022/08/23 00:39:16;;;;;;;5.82;4.47;;;;;;;19.31;61.99;101224.72;5077627;28;20048;-73
2022/08/23 00:41:45;;;;;;;8.02;5.95;;;;;;;19.18;63.46;101216.84;5086006;28;20064;-72
2022/08/23 00:49:47;;;;;;;8.32;5.30;;;;;;;18.62;65.68;101226.66;5086802;28;20048;-72
2022/08/23 00:52:22;;;;;;;11.80;5.13;;;;;;;18.69;65.80;101229.69;5085306;27;20465;-72
2022/08/23 00:54:52;;;;;;;8.32;5.53;;;;;;;18.73;65.51;101224.03;5090802;27;20487;-72
2022/08/23 00:57:21;;;;;;;6.07;4.93;;;;;;;18.75;65.50;101229.19;5090223;28;20599;-72
2022/08/23 00:59:48;;;;;;;7.00;4.70;;;;;;;18.80;64.75;101229.69;5085055;28;20040;-72
2022/08/23 01:02:15;;;;;;;5.90;4.78;;;;;;;18.76;64.26;101226.44;5087945;28;20399;-72
2022/08/23 01:04:46;;;;;;;9.40;5.07;;;;;;;18.89;64.45;101227.16;5080397;27;20051;-72
2022/08/23 01:07:21;;;;;;;9.02;5.38;;;;;;;18.57;65.45;101225.31;5084573;28;20176;-72
2022/08/23 01:09:49;;;;;;;9.23;5.55;;;;;;;18.92;64.29;101215.41;5084162;28;20051;-73
2022/08/23 01:12:19;;;;;;;10.13;5.60;;;;;;;18.93;64.61;101223.28;5088020;28;20044;-73
2022/08/23 01:14:53;;;;;;;7.25;5.60;;;;;;;18.66;65.73;101220.13;5086065;27;20036;-73
2022/08/23 01:17:24;;;;;;;7.63;5.55;;;;;;;18.55;65.84;101221.94;5085522;27;20044;-74
2022/08/23 01:19:54;;;;;;;9.27;5.35;;;;;;;18.64;66.21;101227.38;5084811;27;20043;-73
2022/08/23 01:22:27;;;;;;;8.98;6.22;;;;;;;18.52;66.64;101227.47;5086602;28;20416;-73
2022/08/23 01:24:54;;;;;;;10.50;5.50;;;;;;;18.34;67.19;101227.03;5076679;27;20056;-73
2022/08/23 01:27:21;;;;;;;8.45;5.63;;;;;;;18.20;67.56;101227.25;5081658;28;20048;-73
2022/08/23 01:29:47;;;;;;;7.82;5.80;;;;;;;18.14;68.17;101230.38;5074896;28;20074;-73
2022/08/23 01:32:15;;;;;;;9.13;5.78;;;;;;;17.82;69.12;101230.09;5057870;28;20060;-74
2022/08/23 01:34:41;;;;;;;11.88;5.80;;;;;;;17.83;69.34;101231.81;5082739;28;20067;-73
2022/08/23 01:37:09;;;;;;;8.50;5.85;;;;;;;17.39;71.16;101229.72;5084596;28;20047;-73
2022/08/23 01:39:35;;;;;;;9.85;6.65;;;;;;;17.56;70.75;101236.44;5085192;28;20040;-74
2022/08/23 01:42:04;;;;;;;8.77;5.25;;;;;;;17.90;69.28;101233.03;5083797;28;20044;-73
2022/08/23 01:44:31;;;;;;;8.27;5.78;;;;;;;18.05;69.11;101239.88;5083630;28;20139;-73
2022/08/23 01:46:58;;;;;;;13.18;5.55;;;;;;;17.96;69.06;101232.56;5086866;28;20052;-73
2022/08/23 01:49:24;;;;;;;8.98;5.53;;;;;;;18.17;68.23;101238.94;5084681;28;20514;-73
2022/08/23 01:51:50;;;;;;;11.95;5.78;;;;;;;17.94;68.68;101237.16;5083374;28;20040;-73
2022/08/23 01:54:17;;;;;;;11.35;6.13;;;;;;;17.70;69.63;101234.50;5073975;27;20048;-73
2022/08/23 01:56:43;;;;;;;13.18;5.82;;;;;;;17.60;70.71;101228.19;5076085;28;20392;-73
2022/08/23 01:59:12;;;;;;;16.13;5.78;;;;;;;17.59;70.48;101228.31;5084173;28;20043;-73
2022/08/23 02:01:38;;;;;;;6.88;5.20;;;;;;;17.53;70.34;101226.91;5087040;27;20509;-73
2022/08/23 02:04:05;;;;;;;7.75;5.40;;;;;;;17.74;70.30;101224.50;5085576;27;20101;-73
2022/08/23 02:06:31;;;;;;;9.27;5.13;;;;;;;17.88;68.79;101235.81;5084343;28;20067;-72
2022/08/23 02:09:00;;;;;;;6.30;4.88;;;;;;;17.68;69.02;101231.13;5084785;27;20061;-72
2022/08/23 02:11:29;;;;;;;9.30;5.68;;;;;;;17.81;68.91;101233.75;5085026;27;20052;-72
2022/08/23 02:14:01;;;;;;;10.50;5.72;;;;;;;17.84;69.06;101226.41;5083888;27;20048;-72
2022/08/23 02:16:32;;;;;;;11.07;5.97;;;;;;;17.65;69.67;101226.06;5082888;27;20488;-72
2022/08/23 02:19:01;;;;;;;7.65;5.50;;;;;;;17.74;69.22;101225.38;5082493;27;20048;-72
2022/08/23 02:21:30;;;;;;;6.07;5.35;;;;;;;17.78;67.83;101231.28;5084840;27;20040;-72
2022/08/23 02:23:56;;;;;;;7.70;5.40;;;;;;;17.74;67.69;101227.16;5084819;27;20044;-72
2022/08/23 02:26:23;;;;;;;8.57;5.72;;;;;;;17.88;67.88;101233.19;5085345;27;20561;-72
2022/08/23 02:28:51;;;;;;;8.48;5.72;;;;;;;17.96;67.33;101228.13;5083381;27;20419;-72
2022/08/23 02:31:18;;;;;;;6.75;5.13;;;;;;;18.05;66.55;101231.06;5083855;27;20093;-72
2022/08/23 02:33:47;;;;;;;9.25;6.10;;;;;;;18.00;67.22;101236.69;5085478;27;20044;-72
2022/08/23 02:36:13;;;;;;;11.40;5.93;;;;;;;17.86;67.56;101234.22;5070603;28;20545;-72
2022/08/23 02:38:40;;;;;;;9.20;6.22;;;;;;;17.97;67.67;101236.94;5074728;27;20068;-73
2022/08/23 02:41:07;;;;;;;8.15;5.60;;;;;;;17.90;67.82;101230.38;5084535;27;20099;-73
2022/08/23 02:43:36;;;;;;;7.88;5.57;;;;;;;17.91;67.17;101237.41;5084491;28;20119;-74
2022/08/23 02:46:05;;;;;;;9.13;4.93;;;;;;;17.82;67.35;101235.41;5084222;27;20055;-73
2022/08/23 02:48:31;;;;;;;9.40;5.47;;;;;;;17.59;67.71;101234.44;5083956;28;20442;-73
2022/08/23 02:51:00;;;;;;;8.02;6.03;;;;;;;17.73;67.17;101238.75;5084613;28;20051;-72
2022/08/23 02:53:26;;;;;;;11.40;5.88;;;;;;;17.53;67.83;101234.88;5076296;28;20051;-72
2022/08/23 02:55:52;;;;;;;7.15;5.60;;;;;;;17.47;68.17;101237.97;5083660;27;20051;-72
2022/08/23 02:58:19;;;;;;;8.68;5.68;;;;;;;17.34;69.72;101230.06;5082265;28;20116;-72
2022/08/23 03:00:46;;;;;;;9.18;5.85;;;;;;;17.49;68.96;101239.56;5092706;27;20044;-72
2022/08/23 03:03:13;;;;;;;9.65;5.95;;;;;;;17.58;68.69;101235.44;5082788;28;20447;-72
2022/08/23 03:05:39;;;;;;;7.20;5.13;;;;;;;17.43;68.55;101233.84;5069916;28;20044;-72
2022/08/23 03:08:07;;;;;;;9.85;5.68;;;;;;;17.40;68.41;101239.38;5066098;28;20408;-72
2022/08/23 03:10:33;;;;;;;6.95;5.22;;;;;;;17.37;68.45;101243.06;5081683;28;20044;-72
2022/08/23 03:13:01;;;;;;;5.75;5.00;;;;;;;17.33;67.07;101243.44;5083586;28;20048;-72
2022/08/23 03:15:27;;;;;;;7.50;5.70;;;;;;;17.38;67.61;101236.81;5083987;28;20094;-72
2022/08/23 03:17:54;;;;;;;8.82;5.80;;;;;;;17.43;68.18;101242.66;5084024;28;20067;-72
2022/08/23 03:20:20;;;;;;;6.72;5.50;;;;;;;17.14;69.04;101245.69;5083910;28;20458;-72
2022/08/23 03:22:47;;;;;;;7.60;5.70;;;;;;;17.00;68.71;101250.16;5081001;28;20044;-72
2022/08/23 03:25:14;;;;;;;9.43;6.60;;;;;;;16.93;70.04;101250.69;5068716;27;20048;-72
2022/08/23 03:27:41;;;;;;;9.95;5.97;;;;;;;17.05;69.96;101241.88;5084180;27;20103;-72
2022/08/23 03:30:08;;;;;;;10.18;6.20;;;;;;;17.05;69.87;101249.84;5083882;27;20498;-72
2022/08/23 03:32:35;;;;;;;7.97;5.72;;;;;;;17.11;69.02;101245.91;5088941;27;20040;-72
2022/08/23 03:35:01;;;;;;;10.32;5.78;;;;;;;17.22;68.61;101251.31;5088999;28;20048;-72
2022/08/23 03:37:27;;;;;;;8.57;5.90;;;;;;;17.32;68.25;101242.59;5087257;28;20048;-72
2022/08/23 03:39:54;;;;;;;9.98;5.53;;;;;;;17.40;67.73;101242.88;5088331;28;20056;-72
2022/08/23 03:42:21;;;;;;;7.95;5.30;;;;;;;17.36;67.42;101246.72;5087620;28;20056;-72
2022/08/23 03:44:48;;;;;;;7.78;5.60;;;;;;;17.39;67.01;101243.84;5087859;28;20105;-72
2022/08/23 03:47:14;;;;;;;7.78;5.75;;;;;;;17.41;67.31;101244.56;5088705;28;20048;-72
2022/08/23 03:49:40;;;;;;;7.78;5.28;;;;;;;17.40;67.39;101248.19;5086408;28;20098;-72
2022/08/23 03:52:07;;;;;;;7.25;5.45;;;;;;;17.38;67.08;101241.28;5089328;28;20044;-72
2022/08/23 03:54:34;;;;;;;10.57;6.07;;;;;;;17.38;67.32;101242.13;5080780;27;20452;-72
2022/08/23 03:57:04;;;;;;;8.32;5.32;;;;;;;17.37;66.22;101250.19;5087713;27;20047;-72
2022/08/23 03:59:34;;;;;;;10.57;6.07;;;;;;;17.27;67.51;101257.97;5086633;27;20105;-71
2022/08/23 04:02:01;;;;;;;7.40;5.43;;;;;;;17.18;68.33;101252.47;5086423;27;20392;-71
2022/08/23 04:04:27;;;;;;;7.90;6.22;;;;;;;16.89;69.22;101260.66;5087218;28;20044;-71
2022/08/23 04:06:55;;;;;;;12.15;6.07;;;;;;;16.90;69.28;101249.09;5086801;28;20574;-71
2022/08/23 04:09:21;;;;;;;7.82;5.60;;;;;;;16.99;69.23;101259.06;5085591;28;20043;-72
2022/08/23 04:11:49;;;;;;;8.35;5.90;;;;;;;16.87;68.17;101253.78;5084092;28;20048;-72
2022/08/23 04:14:15;;;;;;;9.65;6.20;;;;;;;16.68;69.16;101261.28;5074382;28;20040;-72
2022/08/23 04:16:43;;;;;;;6.88;5.47;;;;;;;16.84;68.83;101270.75;5088507;28;20089;-72
2022/08/23 04:19:12;;;;;;;13.77;5.82;;;;;;;16.68;68.06;101267.44;5083366;28;20054;-72
2022/08/23 04:21:42;;;;;;;13.60;6.57;;;;;;;16.52;69.16;101262.31;5086652;28;20055;-72
2022/08/23 04:24:08;;;;;;;9.43;6.18;;;;;;;16.67;69.25;101262.22;5081434;27;20131;-72
2022/08/23 04:26:35;;;;;;;9.77;6.07;;;;;;;16.62;69.16;101251.97;5082706;27;20048;-72
2022/08/23 04:29:01;;;;;;;8.32;4.95;;;;;;;16.74;69.30;101271.47;5084666;27;20517;-75
2022/08/23 04:31:29;;;;;;;7.30;4.63;;;;;;;16.57;68.98;101269.13;5085447;27;20047;-73
2022/08/23 04:33:56;;;;;;;8.88;5.68;;;;;;;16.43;69.82;101272.69;5072980;28;20175;-73
2022/08/23 04:36:23;;;;;;;7.85;5.20;;;;;;;16.47;69.47;101268.88;5086524;28;20048;-73
2022/08/23 04:38:49;;;;;;;9.50;5.30;;;;;;;16.70;69.29;101275.28;5085219;28;20036;-73
2022/08/23 04:44:00;;;;;;;5.80;5.18;;;;;;;16.61;68.92;101278.56;5085331;28;20046;-72
2022/08/23 04:46:27;;;;;;;8.27;5.70;;;;;;;16.71;69.29;101283.09;5091816;27;20097;-72
2022/08/23 04:48:54;;;;;;;6.03;5.05;;;;;;;16.79;69.11;101282.59;5088029;28;20052;-73
2022/08/23 04:51:22;;;;;;;8.20;5.30;;;;;;;16.75;69.97;101295.19;5088591;28;20070;-72
2022/08/23 04:53:48;;;;;;;8.85;6.00;;;;;;;16.59;70.66;101296.34;5066883;28;20086;-73
2022/08/23 04:56:14;;;;;;;9.38;5.63;;;;;;;16.62;71.24;101304.94;5083067;28;20093;-73
2022/08/23 04:58:41;;;;;;;6.68;5.43;;;;;;;16.40;72.45;101299.38;5093192;28;20043;-73
2022/08/23 05:01:09;;;;;;;8.10;5.78;;;;;;;16.53;72.64;101298.41;5084377;28;20042;-73
2022/08/23 05:03:36;;;;;;;6.90;5.75;;;;;;;16.66;72.74;101311.72;5075992;27;20127;-73
2022/08/23 05:06:03;;;;;;;7.72;5.82;;;;;;;16.95;72.02;101304.44;5080889;28;20073;-73
2022/08/23 05:08:32;;;;;;;10.35;5.72;;;;;;;16.98;72.40;101310.34;5088058;28;20056;-72
2022/08/23 05:11:00;;;;;;;6.38;5.32;;;;;;;17.33;71.64;101301.75;5104404;28;20491;-72
2022/08/23 05:13:28;;;;;;;10.45;6.03;;;;;;;17.86;70.34;101301.41;5098148;28;20044;-73
2022/08/23 05:15:55;;;;;;;7.25;6.00;;;;;;;18.22;68.73;101307.59;5087529;28;20046;-73
2022/08/23 05:18:21;;;;;;;11.13;6.25;;;;;;;18.79;66.30;101302.38;5083494;28;20032;-73
2022/08/23 05:20:48;;;;;;;9.23;5.90;;;;;;;18.80;66.38;101304.94;5076815;27;20495;-72
2022/08/23 05:23:14;;;;;;;8.93;5.47;;;;;;;19.51;63.33;101305.59;5087261;27;20552;-73
2022/08/23 05:25:51;;;;;;;6.20;4.93;;;;;;;19.64;62.95;101304.47;5083962;27;20086;-73
2022/08/23 05:28:20;;;;;;;7.68;5.47;;;;;;;19.75;62.37;101303.59;5085321;28;20101;-73
2022/08/23 05:30:55;;;;;;;7.53;5.10;;;;;;;20.02;62.87;101303.19;5084724;28;20121;-73
2022/08/23 05:33:21;;;;;;;8.75;4.80;;;;;;;19.96;62.62;101311.66;5086450;28;20048;-73
2022/08/23 05:35:48;;;;;;;7.90;4.53;;;;;;;20.09;63.64;101304.38;5072205;28;20469;-72
2022/08/23 05:38:14;;;;;;;5.95;4.55;;;;;;;20.37;62.07;101309.09;5104525;28;20040;-72
2022/08/23 05:40:42;;;;;;;6.75;4.95;;;;;;;20.56;61.80;101309.25;5095820;28;20041;-72
2022/08/23 05:43:08;;;;;;;6.05;4.80;;;;;;;21.06;60.76;101314.75;5072498;28;20048;-72
2022/08/23 05:45:34;;;;;;;6.10;4.50;;;;;;;21.18;60.97;101313.72;5086583;28;20048;-68
2022/08/23 05:48:01;;;;;;;6.53;4.40;;;;;;;21.33;61.52;101315.03;5086062;27;20048;-67
2022/08/23 05:50:27;;;;;;;13.68;4.57;;;;;;;21.80;59.24;101308.19;5084176;27;20113;-67
2022/08/23 05:52:53;;;;;;;6.43;4.50;;;;;;;21.47;60.58;101300.50;5084230;28;20040;-67
2022/08/23 05:55:20;;;;;;;6.80;4.22;;;;;;;22.03;58.62;101303.44;5085278;27;20093;-67
2022/08/23 05:57:47;;;;;;;5.50;4.43;;;;;;;22.66;56.09;101312.72;5085790;28;20043;-67
2022/08/23 06:00:14;;;;;;;4.78;4.00;;;;;;;22.86;55.02;101310.88;5090055;28;20052;-67
2022/08/23 06:02:41;;;;;;;6.90;4.28;;;;;;;23.28;54.26;101312.16;5085432;27;20050;-67
2022/08/23 06:05:09;;;;;;;10.98;4.95;;;;;;;23.57;53.82;101312.06;5084208;27;20059;-67
2022/08/23 06:07:35;;;;;;;6.88;4.03;;;;;;;23.98;53.08;101322.19;5084124;27;20109;-67
2022/08/23 06:10:02;;;;;;;6.88;4.15;;;;;;;24.40;52.45;101314.44;5084350;27;20109;-67
2022/08/23 06:12:30;;;;;;;7.93;3.88;;;;;;;24.45;50.79;101317.50;5083376;28;20123;-67
2022/08/23 06:14:58;;;;;;;6.40;3.55;;;;;;;24.34;52.37;101320.44;5084388;27;20094;-67
2022/08/23 06:17:24;;;;;;;8.50;3.67;;;;;;;24.40;52.79;101324.31;5085610;27;20040;-66
2022/08/23 06:19:51;;;;;;;6.60;3.47;;;;;;;24.37;52.72;101325.47;5081754;28;20044;-66
2022/08/23 06:22:17;;;;;;;9.68;4.13;;;;;;;25.00;50.29;101331.53;5084467;28;20105;-66
2022/08/23 06:24:44;;;;;;;9.35;4.15;;;;;;;25.05;50.56;101331.91;5066144;27;20080;-66
2022/08/23 06:27:10;;;;;;;5.43;3.70;;;;;;;25.72;48.84;101340.13;5083005;27;20105;-66
2022/08/23 06:29:37;;;;;;;7.55;4.13;;;;;;;25.37;49.22;101336.59;5082557;27;20040;-67
2022/08/23 06:32:06;;;;;;;6.20;3.83;;;;;;;25.78;48.81;101332.25;5085190;27;20050;-66
2022/08/23 06:34:37;;;;;;;10.85;3.72;;;;;;;25.80;49.63;101334.75;5083050;28;20043;-66
2022/08/23 06:37:06;;;;;;;7.85;3.50;;;;;;;25.50;51.54;101342.34;5083889;28;20048;-66
2022/08/23 06:39:33;;;;;;;4.60;3.28;;;;;;;26.14;47.59;101344.44;5081275;28;20043;-66
2022/08/23 06:42:01;;;;;;;11.02;3.63;;;;;;;26.37;48.21;101336.59;5085147;27;20036;-66
2022/08/23 06:44:29;;;;;;;8.85;3.60;;;;;;;26.87;46.86;101344.50;5083845;27;20654;-68
2022/08/23 06:46:56;;;;;;;6.05;3.53;;;;;;;26.55;47.26;101349.88;5082215;27;20044;-68
2022/08/23 06:49:24;;;;;;;4.35;2.80;;;;;;;26.42;48.95;101341.50;5084237;27;20044;-67
2022/08/23 06:51:55;;;;;;;5.90;2.90;;;;;;;26.21;49.33;101343.78;5085687;27;20131;-69
2022/08/23 06:54:24;;;;;;;8.30;3.10;;;;;;;26.30;48.47;101345.50;5066471;27;20492;-68
2022/08/23 06:56:50;;;;;;;6.55;3.28;;;;;;;26.68;49.31;101342.13;5072440;27;20066;-68
2022/08/23 06:59:18;;;;;;;6.45;3.35;;;;;;;26.57;48.51;101345.16;5091671;27;20040;-68
2022/08/23 07:01:48;;;;;;;5.43;2.90;;;;;;;26.71;47.92;101355.28;5082251;28;20404;-68
2022/08/23 07:04:17;;;;;;;6.90;2.78;;;;;;;27.60;45.95;101354.28;5083503;28;20044;-69
2022/08/23 07:06:45;;;;;;;5.22;2.67;;;;;;;27.89;44.20;101354.47;5084147;28;20556;-69
2022/08/23 07:09:12;;;;;;;3.88;2.22;;;;;;;27.84;44.85;101355.00;5082811;27;20564;-68
2022/08/23 07:11:38;;;;;;;5.18;2.30;;;;;;;28.27;44.00;101363.56;5083747;27;20056;-68
2022/08/23 07:14:06;;;;;;;6.45;2.20;;;;;;;28.47;42.68;101362.03;5084644;27;20707;-68
2022/08/23 07:16:35;;;;;;;3.42;2.08;;;;;;;28.52;42.96;101365.06;5084357;27;20411;-68
2022/08/23 07:19:02;;;;;;;5.15;2.30;;;;;;;28.11;43.72;101358.25;5082130;27;20040;-68
2022/08/23 07:21:28;;;;;;;6.55;2.35;;;;;;;27.90;44.71;101369.66;5084966;28;20048;-68
2022/08/23 07:23:55;;;;;;;3.65;1.88;;;;;;;28.13;43.16;101359.75;5068944;27;20044;-68
2022/08/23 07:26:23;;;;;;;3.83;1.80;;;;;;;28.02;41.69;101362.81;5077221;27;20040;-68
2022/08/23 07:28:50;;;;;;;4.95;2.38;;;;;;;27.80;43.83;101371.69;5082897;28;20085;-68
2022/08/23 07:31:18;;;;;;;5.20;1.77;;;;;;;28.64;44.14;101362.78;5082696;27;20039;-69
2022/08/23 07:33:46;;;;;;;4.07;1.67;;;;;;;28.89;41.00;101373.19;5065863;28;20090;-68
2022/08/23 07:36:15;;;;;;;4.95;1.92;;;;;;;28.87;40.96;101375.22;5055722;28;20040;-68
2022/08/23 07:38:42;;;;;;;3.30;1.60;;;;;;;28.90;42.08;101380.25;5052597;28;20419;-67
2022/08/23 07:41:10;;;;;;;2.88;1.50;;;;;;;29.27;39.41;101371.31;5081929;28;20048;-68
2022/08/23 07:43:36;;;;;;;7.22;1.70;;;;;;;29.84;40.36;101371.47;5083260;27;20556;-68
2022/08/23 07:46:03;;;;;;;4.05;1.58;;;;;;;29.55;42.09;101378.75;5084472;28;20043;-68
2022/08/23 07:48:29;;;;;;;3.47;1.70;;;;;;;30.01;41.30;101384.81;5082121;27;20044;-68
2022/08/23 07:50:58;;;;;;;4.18;2.10;;;;;;;30.41;39.59;101370.66;5081448;27;20105;-69
2022/08/23 07:53:25;;;;;;;3.63;1.90;;;;;;;30.35;39.88;101374.97;5082591;28;20044;-69
2022/08/23 07:55:52;;;;;;;2.95;1.70;;;;;;;30.09;41.83;101379.25;5084485;27;20052;-69
2022/08/23 07:58:20;;;;;;;4.20;2.10;;;;;;;29.65;43.00;101372.03;5083522;27;20052;-69
2022/08/23 08:00:47;;;;;;;4.88;2.20;;;;;;;29.18;41.83;101377.78;5083823;28;20091;-69
2022/08/23 08:03:14;;;;;;;5.82;2.50;;;;;;;29.66;43.31;101384.53;5084294;28;20500;-69
2022/08/23 08:05:41;;;;;;;4.75;1.80;;;;;;;30.16;40.21;101380.16;5082266;27;20040;-68
2022/08/23 08:08:08;;;;;;;4.28;2.33;;;;;;;29.36;38.73;101380.16;5085453;28;20040;-68
2022/08/23 08:10:37;;;;;;;6.68;2.13;;;;;;;29.55;43.67;101382.31;5083272;27;20064;-68
2022/08/23 08:13:03;;;;;;;5.72;2.17;;;;;;;30.31;41.06;101379.09;5082858;27;20136;-67
2022/08/23 08:15:32;;;;;;;7.20;2.30;;;;;;;30.04;38.06;101385.25;5082707;28;20159;-68
2022/08/23 08:17:58;;;;;;;4.57;2.20;;;;;;;30.33;39.31;101379.75;5085360;27;20741;-71
2022/08/23 08:20:26;;;;;;;5.25;1.90;;;;;;;30.88;36.76;101372.78;5084676;27;20055;-70
2022/08/23 08:22:53;;;;;;;8.98;2.10;;;;;;;31.07;38.02;101376.69;5084773;27;20074;-70
2022/08/23 08:25:20;;;;;;;4.63;2.60;;;;;;;31.26;38.39;101382.22;5079394;27;20097;-70
2022/08/23 08:27:47;;;;;;;8.65;2.55;;;;;;;31.22;37.12;101378.28;5075392;27;20044;-70
2022/08/23 08:30:13;;;;;;;6.80;2.25;;;;;;;31.63;38.90;101389.19;5085254;27;20054;-70
2022/08/23 08:32:42;;;;;;;9.70;2.78;;;;;;;31.47;36.09;101385.91;5086334;27;20093;-70
2022/08/23 08:35:09;;;;;;;5.28;2.25;;;;;;;30.32;36.45;101378.06;5085287;27;20056;-70
2022/08/23 08:37:37;;;;;;;5.43;2.28;;;;;;;30.01;37.83;101380.19;5086525;27;20040;-70
2022/08/23 08:40:05;;;;;;;9.68;2.40;;;;;;;30.71;36.45;101383.03;5085990;28;20488;-70
2022/08/23 08:42:50;;;;;;;7.25;2.00;;;;;;;31.20;37.66;101371.34;5085314;28;20040;-70
2022/08/23 08:45:23;;;;;;;9.48;2.55;;;;;;;31.37;37.74;101373.53;5086240;28;20048;-70
2022/08/23 08:47:56;;;;;;;6.32;2.45;;;;;;;31.74;37.09;101364.16;5085683;27;20040;-70
2022/08/23 08:50:28;;;;;;;5.75;2.03;;;;;;;32.02;37.08;101372.22;5085797;28;20094;-70
2022/08/23 08:53:01;;;;;;;3.88;2.05;;;;;;;32.19;36.05;101367.25;5085394;27;20415;-70
2022/08/23 08:55:32;;;;;;;8.07;2.15;;;;;;;32.13;36.06;101379.78;5087107;27;20044;-70
2022/08/23 08:58:00;;;;;;;3.58;1.90;;;;;;;31.82;35.25;101379.44;5072748;28;20102;-70
2022/08/23 09:00:31;;;;;;;5.82;2.17;;;;;;;32.53;35.36;101385.28;5064632;28;20052;-70
2022/08/23 09:03:02;;;;;;;4.40;2.03;;;;;;;31.16;36.05;101375.50;5066546;28;20330;-70
2022/08/23 09:05:33;;;;;;;5.38;2.00;;;;;;;31.63;35.13;101386.47;5066878;28;20048;-70
2022/08/23 09:08:17;;;;;;;6.28;2.17;;;;;;;32.05;38.67;101379.09;5087648;28;20067;-70
2022/08/23 09:10:52;;;;;;;3.78;1.85;;;;;;;32.12;37.86;101377.25;5084147;27;20105;-70
2022/08/23 09:13:35;;;;;;;9.38;2.05;;;;;;;31.53;37.24;101372.41;5086908;27;20465;-70
2022/08/23 09:16:12;;;;;;;8.43;2.05;;;;;;;31.26;36.77;101373.28;5073159;27;20074;-70
2022/08/23 09:18:39;;;;;;;6.88;2.30;;;;;;;31.76;37.29;101367.53;5078011;27;20048;-70
2022/08/23 09:21:08;;;;;;;4.40;1.88;;;;;;;31.82;35.71;101358.56;5086522;28;20043;-70
2022/08/23 09:23:40;;;;;;;4.05;2.00;;;;;;;31.13;36.22;101363.19;5086005;27;20052;-70
2022/08/23 09:26:18;;;;;;;7.50;2.03;;;;;;;30.90;36.89;101359.88;5086248;27;20097;-70
2022/08/23 09:28:45;;;;;;;7.00;2.40;;;;;;;31.38;39.54;101358.97;5064699;28;20496;-70
2022/08/23 09:31:33;;;;;;;5.88;2.05;;;;;;;31.81;37.60;101362.34;5066054;28;20068;-70
2022/08/23 09:34:00;;;;;;;6.90;2.28;;;;;;;32.24;37.95;101349.34;5080875;28;20044;-70
2022/08/23 09:36:32;;;;;;;3.08;1.90;;;;;;;32.52;35.06;101351.06;5085534;28;20078;-70
2022/08/23 09:39:01;;;;;;;4.95;1.95;;;;;;;32.17;36.06;101353.09;5086128;28;20051;-70
2022/08/23 09:41:32;;;;;;;4.53;2.15;;;;;;;32.15;36.85;101338.91;5085087;28;20117;-70
2022/08/23 09:44:01;;;;;;;3.60;2.03;;;;;;;32.31;36.45;101335.78;5085331;28;20044;-70
2022/08/23 09:46:30;;;;;;;3.33;1.70;;;;;;;32.48;36.85;101339.78;5086136;27;20483;-70
2022/08/23 09:48:58;;;;;;;4.03;1.50;;;;;;;32.99;32.68;101334.56;5086212;27;20044;-70
2022/08/23 09:51:29;;;;;;;5.80;1.90;;;;;;;32.28;33.64;101341.63;5085575;27;20060;-70
2022/08/23 09:54:06;;;;;;;5.05;1.58;;;;;;;32.44;31.13;101332.25;5083740;27;20613;-70
2022/08/23 09:56:38;;;;;;;3.60;1.75;;;;;;;32.18;32.00;101338.47;5085600;27;20044;-70
2022/08/23 09:59:19;;;;;;;;;;;;;;;32.69;32.99;101336.88;5086075;28;20051;-70
2022/08/23 10:01:49;;;;;;;3.47;1.95;;;;;;;33.28;31.23;101333.25;5085022;27;19973;-70
2022/08/23 10:04:17;;;;;;;10.85;1.60;;;;;;;32.76;29.73;101335.00;5085803;27;20126;-70
2022/08/23 10:06:45;;;;;;;6.13;1.90;;;;;;;32.47;31.93;101327.25;5072788;28;20086;-70
2022/08/23 10:09:24;;;;;;;5.80;1.90;;;;;;;33.03;32.28;101321.38;5084846;28;20777;-70
2022/08/23 10:11:50;;;;;;;4.70;1.83;;;;;;;32.73;31.44;101324.56;5083303;28;20048;-70
2022/08/23 10:14:19;;;;;;;3.47;1.50;;;;;;;33.30;31.27;101325.72;5085300;28;20492;-70
2022/08/23 10:16:58;;;;;;;3.67;1.70;;;;;;;33.03;32.73;101324.09;5086091;28;20433;-70
2022/08/23 10:19:30;;;;;;;3.15;1.80;;;;;;;33.59;31.43;101327.91;5095072;27;20044;-70
2022/08/23 10:22:03;;;;;;;5.32;1.58;;;;;;;34.34;31.11;101318.09;5076232;28;20577;-70
2022/08/23 10:24:41;;;;;;;7.57;1.65;;;;;;;34.61;27.72;101311.41;5084292;28;20564;-70
2022/08/23 10:30:08;;;;;;;4.35;1.60;;;;;;;32.60;29.75;101310.97;5067385;28;20052;-70
2022/08/23 10:32:51;;;;;;;7.70;1.60;;;;;;;33.23;33.07;101308.59;5077207;27;20059;-70
2022/08/23 10:35:28;;;;;;;4.50;1.67;;;;;;;33.31;29.34;101307.53;5077160;28;20114;-70
2022/08/23 10:38:09;;;;;;;4.30;1.55;;;;;;;33.26;29.67;101310.88;5083310;28;20044;-70
2022/08/23 10:40:44;;;;;;;4.53;1.75;;;;;;;33.50;28.68;101310.19;5083817;28;20507;-70
2022/08/23 10:43:19;;;;;;;5.85;2.10;;;;;;;32.68;28.07;101304.50;5081298;28;20044;-70
2022/08/23 10:45:46;;;;;;;4.53;1.90;;;;;;;33.31;30.30;101312.97;5074862;27;20109;-70
2022/08/23 10:48:25;;;;;;;3.63;1.70;;;;;;;33.79;26.77;101314.25;5084489;27;20051;-70
2022/08/23 10:50:56;;;;;;;4.13;1.40;;;;;;;34.21;28.06;101312.78;5083135;27;20051;-70
2022/08/23 10:53:34;;;;;;;6.07;1.50;;;;;;;33.59;26.93;101321.66;5083553;27;20044;-70
2022/08/23 10:56:04;;;;;;;3.67;1.58;;;;;;;33.64;28.13;101319.97;5077568;27;20506;-70
2022/08/23 10:58:37;;;;;;;4.90;1.67;;;;;;;33.79;29.10;101327.84;5084637;27;20040;-70
2022/08/23 11:01:05;;;;;;;3.17;1.60;;;;;;;33.95;29.11;101329.25;5083128;27;20070;-70
2022/08/23 11:03:34;;;;;;;3.85;1.90;;;;;;;33.14;26.16;101313.44;5084963;27;20036;-70
2022/08/23 11:06:44;;;;;;;6.20;1.90;;;;;;;31.97;30.15;101315.00;5083022;27;20048;-70
2022/08/23 11:09:30;;;;;;;3.72;1.40;;;;;;;32.60;31.02;101310.97;5064784;28;20052;-69
2022/08/23 11:12:13;;;;;;;7.07;1.60;;;;;;;33.29;31.79;101305.03;5085404;28;20051;-69
2022/08/23 11:14:45;;;;;;;7.30;2.00;;;;;;;34.04;28.45;101308.84;5074746;28;20044;-69
2022/08/23 11:17:25;;;;;;;4.05;1.98;;;;;;;34.28;31.55;101305.38;5085966;27;20063;-69
2022/08/23 11:19:54;;;;;;;4.80;1.70;;;;;;;34.31;27.22;101301.38;5080274;28;20044;-69
2022/08/23 11:22:23;;;;;;;5.35;1.40;;;;;;;33.78;25.39;101301.69;5063807;28;20048;-69
2022/08/23 11:24:54;;;;;;;5.57;1.70;;;;;;;33.59;27.47;101303.44;5075828;27;20120;-69
2022/08/23 11:27:34;;;;;;;7.45;1.60;;;;;;;33.50;28.77;101306.63;5083226;28;20048;-70
2022/08/23 11:30:44;;;;;;;4.95;1.50;;;;;;;32.62;28.30;101294.47;5082284;28;20040;-70
2022/08/23 11:33:18;;;;;;;3.28;1.35;;;;;;;32.73;26.29;101300.13;5064650;28;20423;-70
2022/08/23 11:35:48;;;;;;;3.50;1.77;;;;;;;32.23;26.89;101289.84;5064748;28;20036;-70
2022/08/23 11:38:15;;;;;;;4.35;1.60;;;;;;;32.23;28.50;101290.69;5084150;27;20048;-70
2022/08/23 11:40:58;;;;;;;4.30;1.40;;;;;;;32.42;30.25;101286.31;5086315;28;20487;-70
2022/08/23 11:43:32;;;;;;;3.75;1.58;;;;;;;32.61;27.63;101290.09;5105608;28;20043;-70
2022/08/23 11:46:31;;;;;;;5.72;1.83;;;;;;;32.47;29.37;101289.22;5090640;28;20052;-70